sensor_id;sensor_type;location;lat;lon;timestamp;P1;durP1;ratioP1;P2;durP2;ratioP2
27428;SDS011;14881;48.092;11.574;2022-10-03T00:00:58;10.02;;;7.43;;
27428;SDS011;14881;48.092;11.574;2022-10-03T00:03:39;11.98;;;8.35;;
27428;SDS011;14881;48.092;11.574;2022-10-03T00:06:19;12.82;;;7.70;;
27428;SDS011;14881;48.092;11.574;2022-10-03T00:09:01;12.75;;;8.43;;
27428;SDS011;14881;48.092;11.574;2022-10-03T00:11:42;15.93;;;9.10;;
27428;SDS011;14881;48.092;11.574;2022-10-03T00:14:22;12.48;;;9.77;;
27428;SDS011;14881;48.092;11.574;2022-10-03T00:16:58;16.07;;;10.73;;
27428;SDS011;14881;48.092;11.574;2022-10-03T00:19:30;12.77;;;9.27;;
27428;SDS011;14881;48.092;11.574;2022-10-03T00:22:10;10.40;;;9.02;;
27428;SDS011;14881;48.092;11.574;2022-10-03T00:24:49;13.38;;;9.10;;
27428;SDS011;14881;48.092;11.574;2022-10-03T00:27:26;16.60;;;11.35;;
27428;SDS011;14881;48.092;11.574;2022-10-03T00:30:01;14.43;;;10.25;;
27428;SDS011;14881;48.092;11.574;2022-10-03T00:32:53;15.05;;;11.07;;
27428;SDS011;14881;48.092;11.574;2022-10-03T00:35:40;14.85;;;10.63;;
27428;SDS011;14881;48.092;11.574;2022-10-03T00:38:19;15.07;;;10.18;;
27428;SDS011;14881;48.092;11.574;2022-10-03T00:44:20;17.75;;;11.00;;
27428;SDS011;14881;48.092;11.574;2022-10-03T00:53:26;18.13;;;10.65;;
27428;SDS011;14881;48.092;11.574;2022-10-03T00:56:14;18.67;;;10.68;;
27428;SDS011;14881;48.092;11.574;2022-10-03T00:59:00;24.55;;;12.85;;
27428;SDS011;14881;48.092;11.574;2022-10-03T01:01:43;18.83;;;12.02;;
27428;SDS011;14881;48.092;11.574;2022-10-03T01:07:16;21.42;;;11.77;;
27428;SDS011;14881;48.092;11.574;2022-10-03T01:09:59;23.67;;;13.27;;
27428;SDS011;14881;48.092;11.574;2022-10-03T01:12:43;23.08;;;13.63;;
27428;SDS011;14881;48.092;11.574;2022-10-03T01:15:26;24.08;;;13.70;;
27428;SDS011;14881;48.092;11.574;2022-10-03T01:18:04;28.30;;;14.10;;
27428;SDS011;14881;48.092;11.574;2022-10-03T01:20:46;22.73;;;13.45;;
27428;SDS011;14881;48.092;11.574;2022-10-03T01:23:31;28.98;;;14.50;;
27428;SDS011;14881;48.092;11.574;2022-10-03T01:26:13;25.55;;;13.52;;
27428;SDS011;14881;48.092;11.574;2022-10-03T01:28:55;24.73;;;13.15;;
27428;SDS011;14881;48.092;11.574;2022-10-03T01:31:45;23.33;;;14.52;;
27428;SDS011;14881;48.092;11.574;2022-10-03T01:34:21;27.37;;;15.20;;
27428;SDS011;14881;48.092;11.574;2022-10-03T01:37:01;26.25;;;14.55;;
27428;SDS011;14881;48.092;11.574;2022-10-03T01:39:36;33.50;;;16.25;;
27428;SDS011;14881;48.092;11.574;2022-10-03T01:42:11;33.88;;;16.15;;
27428;SDS011;14881;48.092;11.574;2022-10-03T01:44:48;34.33;;;17.15;;
27428;SDS011;14881;48.092;11.574;2022-10-03T01:47:30;34.40;;;16.90;;
27428;SDS011;14881;48.092;11.574;2022-10-03T01:50:06;35.47;;;17.00;;
27428;SDS011;14881;48.092;11.574;2022-10-03T01:52:47;35.35;;;16.58;;
27428;SDS011;14881;48.092;11.574;2022-10-03T01:55:22;37.72;;;18.30;;
27428;SDS011;14881;48.092;11.574;2022-10-03T01:57:57;35.53;;;17.83;;
27428;SDS011;14881;48.092;11.574;2022-10-03T02:00:33;41.65;;;19.02;;
27428;SDS011;14881;48.092;11.574;2022-10-03T02:03:10;37.42;;;17.70;;
27428;SDS011;14881;48.092;11.574;2022-10-03T02:05:46;38.45;;;16.55;;
27428;SDS011;14881;48.092;11.574;2022-10-03T02:08:22;36.05;;;17.38;;
27428;SDS011;14881;48.092;11.574;2022-10-03T02:10:59;47.08;;;19.08;;
27428;SDS011;14881;48.092;11.574;2022-10-03T02:13:30;34.05;;;17.17;;
27428;SDS011;14881;48.092;11.574;2022-10-03T02:16:11;37.83;;;17.55;;
27428;SDS011;14881;48.092;11.574;2022-10-03T02:18:48;37.30;;;17.83;;
27428;SDS011;14881;48.092;11.574;2022-10-03T02:21:22;29.80;;;17.13;;
27428;SDS011;14881;48.092;11.574;2022-10-03T02:24:02;41.40;;;18.00;;
27428;SDS011;14881;48.092;11.574;2022-10-03T02:26:49;34.10;;;15.98;;
27428;SDS011;14881;48.092;11.574;2022-10-03T02:29:38;34.95;;;17.83;;
27428;SDS011;14881;48.092;11.574;2022-10-03T02:38:07;26.65;;;15.15;;
27428;SDS011;14881;48.092;11.574;2022-10-03T02:40:45;30.85;;;16.75;;
27428;SDS011;14881;48.092;11.574;2022-10-03T02:43:52;39.20;;;17.13;;
27428;SDS011;14881;48.092;11.574;2022-10-03T02:50:04;30.08;;;16.58;;
27428;SDS011;14881;48.092;11.574;2022-10-03T02:52:58;31.45;;;16.55;;
27428;SDS011;14881;48.092;11.574;2022-10-03T02:56:11;27.27;;;15.52;;
27428;SDS011;14881;48.092;11.574;2022-10-03T03:02:10;32.50;;;15.65;;
27428;SDS011;14881;48.092;11.574;2022-10-03T03:08:12;39.38;;;17.33;;
27428;SDS011;14881;48.092;11.574;2022-10-03T03:11:06;29.88;;;15.55;;
27428;SDS011;14881;48.092;11.574;2022-10-03T03:22:35;36.78;;;16.02;;
27428;SDS011;14881;48.092;11.574;2022-10-03T03:25:20;40.45;;;17.92;;
27428;SDS011;14881;48.092;11.574;2022-10-03T03:28:11;27.83;;;15.98;;
27428;SDS011;14881;48.092;11.574;2022-10-03T03:30:51;27.58;;;15.75;;
27428;SDS011;14881;48.092;11.574;2022-10-03T03:33:29;23.92;;;14.57;;
27428;SDS011;14881;48.092;11.574;2022-10-03T03:36:08;26.02;;;15.60;;
27428;SDS011;14881;48.092;11.574;2022-10-03T03:38:47;37.78;;;16.77;;
27428;SDS011;14881;48.092;11.574;2022-10-03T03:41:28;36.95;;;16.02;;
27428;SDS011;14881;48.092;11.574;2022-10-03T03:50:03;31.95;;;15.98;;
27428;SDS011;14881;48.092;11.574;2022-10-03T03:52:54;25.95;;;14.63;;
27428;SDS011;14881;48.092;11.574;2022-10-03T03:55:40;30.17;;;15.43;;
27428;SDS011;14881;48.092;11.574;2022-10-03T03:58:22;36.13;;;16.30;;
27428;SDS011;14881;48.092;11.574;2022-10-03T04:01:12;30.73;;;15.43;;
27428;SDS011;14881;48.092;11.574;2022-10-03T04:03:59;22.75;;;13.88;;
27428;SDS011;14881;48.092;11.574;2022-10-03T04:06:42;27.15;;;14.13;;
27428;SDS011;14881;48.092;11.574;2022-10-03T04:09:41;21.92;;;13.52;;
27428;SDS011;14881;48.092;11.574;2022-10-03T04:12:30;22.83;;;14.35;;
27428;SDS011;14881;48.092;11.574;2022-10-03T04:18:02;24.30;;;14.95;;
27428;SDS011;14881;48.092;11.574;2022-10-03T04:21:00;25.60;;;14.40;;
27428;SDS011;14881;48.092;11.574;2022-10-03T04:26:47;28.08;;;13.70;;
27428;SDS011;14881;48.092;11.574;2022-10-03T04:29:38;29.00;;;14.55;;
27428;SDS011;14881;48.092;11.574;2022-10-03T04:32:13;26.65;;;15.05;;
27428;SDS011;14881;48.092;11.574;2022-10-03T04:35:14;27.55;;;14.02;;
27428;SDS011;14881;48.092;11.574;2022-10-03T04:37:52;25.05;;;13.15;;
27428;SDS011;14881;48.092;11.574;2022-10-03T04:40:37;19.42;;;12.15;;
27428;SDS011;14881;48.092;11.574;2022-10-03T04:43:13;21.73;;;13.45;;
27428;SDS011;14881;48.092;11.574;2022-10-03T04:45:56;27.55;;;14.38;;
27428;SDS011;14881;48.092;11.574;2022-10-03T04:48:42;23.10;;;13.65;;
27428;SDS011;14881;48.092;11.574;2022-10-03T04:51:18;31.10;;;14.60;;
27428;SDS011;14881;48.092;11.574;2022-10-03T04:53:56;28.45;;;13.65;;
27428;SDS011;14881;48.092;11.574;2022-10-03T04:56:39;31.70;;;15.15;;
27428;SDS011;14881;48.092;11.574;2022-10-03T05:02:02;24.50;;;13.48;;
27428;SDS011;14881;48.092;11.574;2022-10-03T05:04:42;29.02;;;13.75;;
27428;SDS011;14881;48.092;11.574;2022-10-03T05:07:24;28.92;;;14.02;;
27428;SDS011;14881;48.092;11.574;2022-10-03T05:09:57;28.15;;;14.02;;
27428;SDS011;14881;48.092;11.574;2022-10-03T05:12:40;28.25;;;14.93;;
27428;SDS011;14881;48.092;11.574;2022-10-03T05:15:17;23.20;;;13.82;;
27428;SDS011;14881;48.092;11.574;2022-10-03T05:17:54;30.65;;;14.48;;
27428;SDS011;14881;48.092;11.574;2022-10-03T05:20:32;26.27;;;12.75;;
27428;SDS011;14881;48.092;11.574;2022-10-03T05:23:13;28.58;;;14.27;;
27428;SDS011;14881;48.092;11.574;2022-10-03T05:25:53;25.55;;;13.45;;
27428;SDS011;14881;48.092;11.574;2022-10-03T05:28:52;28.48;;;14.15;;
27428;SDS011;14881;48.092;11.574;2022-10-03T05:31:28;34.83;;;14.30;;
27428;SDS011;14881;48.092;11.574;2022-10-03T05:34:07;29.00;;;13.60;;
27428;SDS011;14881;48.092;11.574;2022-10-03T05:36:54;25.00;;;13.27;;
27428;SDS011;14881;48.092;11.574;2022-10-03T05:39:39;23.63;;;13.35;;
27428;SDS011;14881;48.092;11.574;2022-10-03T05:42:24;21.40;;;11.68;;
27428;SDS011;14881;48.092;11.574;2022-10-03T05:45:04;21.55;;;11.25;;
27428;SDS011;14881;48.092;11.574;2022-10-03T05:47:49;21.20;;;12.57;;
27428;SDS011;14881;48.092;11.574;2022-10-03T05:50:31;23.23;;;13.55;;
27428;SDS011;14881;48.092;11.574;2022-10-03T05:53:14;23.65;;;13.10;;
27428;SDS011;14881;48.092;11.574;2022-10-03T05:55:59;28.00;;;13.27;;
27428;SDS011;14881;48.092;11.574;2022-10-03T06:01:50;31.05;;;14.35;;
27428;SDS011;14881;48.092;11.574;2022-10-03T06:04:38;24.90;;;14.70;;
27428;SDS011;14881;48.092;11.574;2022-10-03T06:07:21;27.75;;;14.52;;
27428;SDS011;14881;48.092;11.574;2022-10-03T06:12:49;19.98;;;12.50;;
27428;SDS011;14881;48.092;11.574;2022-10-03T06:15:38;24.55;;;13.52;;
27428;SDS011;14881;48.092;11.574;2022-10-03T06:24:29;21.60;;;12.23;;
27428;SDS011;14881;48.092;11.574;2022-10-03T06:30:39;21.52;;;13.15;;
27428;SDS011;14881;48.092;11.574;2022-10-03T06:36:47;24.48;;;15.07;;
27428;SDS011;14881;48.092;11.574;2022-10-03T06:39:39;22.85;;;15.00;;
27428;SDS011;14881;48.092;11.574;2022-10-03T06:42:46;20.40;;;14.10;;
27428;SDS011;14881;48.092;11.574;2022-10-03T06:52:02;21.67;;;12.52;;
27428;SDS011;14881;48.092;11.574;2022-10-03T06:54:52;21.30;;;13.45;;
27428;SDS011;14881;48.092;11.574;2022-10-03T06:57:58;17.48;;;11.60;;
27428;SDS011;14881;48.092;11.574;2022-10-03T07:00:57;18.90;;;12.05;;
27428;SDS011;14881;48.092;11.574;2022-10-03T07:03:55;17.52;;;11.65;;
27428;SDS011;14881;48.092;11.574;2022-10-03T07:06:39;20.65;;;11.38;;
27428;SDS011;14881;48.092;11.574;2022-10-03T07:09:34;20.17;;;15.77;;
27428;SDS011;14881;48.092;11.574;2022-10-03T07:15:55;16.77;;;11.75;;
27428;SDS011;14881;48.092;11.574;2022-10-03T07:19:04;19.83;;;11.60;;
27428;SDS011;14881;48.092;11.574;2022-10-03T07:28:00;16.25;;;11.07;;
27428;SDS011;14881;48.092;11.574;2022-10-03T07:33:44;19.73;;;11.40;;
27428;SDS011;14881;48.092;11.574;2022-10-03T07:36:31;20.02;;;12.90;;
27428;SDS011;14881;48.092;11.574;2022-10-03T07:39:34;19.65;;;12.93;;
27428;SDS011;14881;48.092;11.574;2022-10-03T07:42:30;19.73;;;11.77;;
27428;SDS011;14881;48.092;11.574;2022-10-03T07:48:23;20.75;;;12.13;;
27428;SDS011;14881;48.092;11.574;2022-10-03T07:51:19;18.45;;;11.38;;
27428;SDS011;14881;48.092;11.574;2022-10-03T07:54:12;15.40;;;10.60;;
27428;SDS011;14881;48.092;11.574;2022-10-03T07:57:01;15.60;;;10.63;;
27428;SDS011;14881;48.092;11.574;2022-10-03T08:02:42;18.45;;;11.85;;
27428;SDS011;14881;48.092;11.574;2022-10-03T08:05:34;16.98;;;11.40;;
27428;SDS011;14881;48.092;11.574;2022-10-03T08:08:17;18.77;;;10.65;;
27428;SDS011;14881;48.092;11.574;2022-10-03T08:11:12;15.07;;;10.85;;
27428;SDS011;14881;48.092;11.574;2022-10-03T08:14:00;18.42;;;12.57;;
27428;SDS011;14881;48.092;11.574;2022-10-03T08:16:49;18.55;;;11.80;;
27428;SDS011;14881;48.092;11.574;2022-10-03T08:19:37;15.13;;;11.27;;
27428;SDS011;14881;48.092;11.574;2022-10-03T08:22:32;22.98;;;13.55;;
27428;SDS011;14881;48.092;11.574;2022-10-03T08:28:07;17.27;;;13.02;;
27428;SDS011;14881;48.092;11.574;2022-10-03T08:34:11;24.70;;;12.77;;
27428;SDS011;14881;48.092;11.574;2022-10-03T08:43:46;18.00;;;12.27;;
27428;SDS011;14881;48.092;11.574;2022-10-03T08:46:38;19.77;;;12.90;;
27428;SDS011;14881;48.092;11.574;2022-10-03T08:49:47;19.85;;;11.55;;
27428;SDS011;14881;48.092;11.574;2022-10-03T08:52:33;18.63;;;11.50;;
27428;SDS011;14881;48.092;11.574;2022-10-03T08:58:22;13.77;;;10.75;;
27428;SDS011;14881;48.092;11.574;2022-10-03T09:01:21;18.35;;;10.60;;
27428;SDS011;14881;48.092;11.574;2022-10-03T09:07:16;22.58;;;11.05;;
27428;SDS011;14881;48.092;11.574;2022-10-03T09:10:07;19.10;;;11.57;;
27428;SDS011;14881;48.092;11.574;2022-10-03T09:19:11;18.85;;;11.73;;
27428;SDS011;14881;48.092;11.574;2022-10-03T09:25:14;15.95;;;10.60;;
27428;SDS011;14881;48.092;11.574;2022-10-03T09:27:56;18.70;;;10.35;;
27428;SDS011;14881;48.092;11.574;2022-10-03T09:30:52;17.65;;;10.95;;
27428;SDS011;14881;48.092;11.574;2022-10-03T09:33:44;16.60;;;10.88;;
27428;SDS011;14881;48.092;11.574;2022-10-03T09:36:40;13.18;;;9.45;;
27428;SDS011;14881;48.092;11.574;2022-10-03T09:39:36;19.92;;;10.40;;
27428;SDS011;14881;48.092;11.574;2022-10-03T09:49:02;14.38;;;9.70;;
27428;SDS011;14881;48.092;11.574;2022-10-03T09:52:02;20.45;;;10.13;;
27428;SDS011;14881;48.092;11.574;2022-10-03T09:55:01;20.75;;;9.27;;
27428;SDS011;14881;48.092;11.574;2022-10-03T09:57:52;14.00;;;8.65;;
27428;SDS011;14881;48.092;11.574;2022-10-03T10:00:35;15.02;;;8.35;;
27428;SDS011;14881;48.092;11.574;2022-10-03T10:06:29;10.00;;;5.70;;
27428;SDS011;14881;48.092;11.574;2022-10-03T10:12:32;8.65;;;5.95;;
27428;SDS011;14881;48.092;11.574;2022-10-03T10:21:55;15.55;;;6.47;;
27428;SDS011;14881;48.092;11.574;2022-10-03T10:27:53;9.27;;;5.60;;
27428;SDS011;14881;48.092;11.574;2022-10-03T10:30:59;7.63;;;5.15;;
27428;SDS011;14881;48.092;11.574;2022-10-03T10:34:03;8.07;;;4.72;;
27428;SDS011;14881;48.092;11.574;2022-10-03T10:37:05;9.82;;;5.15;;
27428;SDS011;14881;48.092;11.574;2022-10-03T10:40:04;11.57;;;5.28;;
27428;SDS011;14881;48.092;11.574;2022-10-03T10:43:06;7.13;;;4.97;;
27428;SDS011;14881;48.092;11.574;2022-10-03T11:01:51;11.25;;;7.57;;
27428;SDS011;14881;48.092;11.574;2022-10-03T11:04:51;13.70;;;6.82;;
27428;SDS011;14881;48.092;11.574;2022-10-03T11:07:57;9.82;;;6.18;;
27428;SDS011;14881;48.092;11.574;2022-10-03T11:11:02;13.18;;;6.82;;
27428;SDS011;14881;48.092;11.574;2022-10-03T11:13:58;12.15;;;6.53;;
27428;SDS011;14881;48.092;11.574;2022-10-03T11:17:08;10.73;;;6.50;;
27428;SDS011;14881;48.092;11.574;2022-10-03T11:20:15;10.63;;;6.53;;
27428;SDS011;14881;48.092;11.574;2022-10-03T11:30:02;11.52;;;5.22;;
27428;SDS011;14881;48.092;11.574;2022-10-03T11:38:58;8.35;;;5.63;;
27428;SDS011;14881;48.092;11.574;2022-10-03T11:41:38;7.15;;;4.72;;
27428;SDS011;14881;48.092;11.574;2022-10-03T11:44:17;7.82;;;4.43;;
27428;SDS011;14881;48.092;11.574;2022-10-03T11:46:50;9.13;;;4.78;;
27428;SDS011;14881;48.092;11.574;2022-10-03T11:52:41;6.88;;;4.07;;
27428;SDS011;14881;48.092;11.574;2022-10-03T11:58:00;7.10;;;4.05;;
27428;SDS011;14881;48.092;11.574;2022-10-03T12:00:42;5.95;;;3.63;;
27428;SDS011;14881;48.092;11.574;2022-10-03T12:03:16;10.15;;;3.80;;
27428;SDS011;14881;48.092;11.574;2022-10-03T12:05:49;8.60;;;3.53;;
27428;SDS011;14881;48.092;11.574;2022-10-03T12:08:44;6.22;;;4.20;;
27428;SDS011;14881;48.092;11.574;2022-10-03T12:11:23;9.88;;;3.88;;
27428;SDS011;14881;48.092;11.574;2022-10-03T12:16:56;8.77;;;3.53;;
27428;SDS011;14881;48.092;11.574;2022-10-03T12:19:32;6.28;;;3.88;;
27428;SDS011;14881;48.092;11.574;2022-10-03T12:22:08;7.80;;;3.83;;
27428;SDS011;14881;48.092;11.574;2022-10-03T12:24:45;7.70;;;4.10;;
27428;SDS011;14881;48.092;11.574;2022-10-03T12:27:17;7.80;;;3.72;;
27428;SDS011;14881;48.092;11.574;2022-10-03T12:29:53;8.30;;;4.07;;
27428;SDS011;14881;48.092;11.574;2022-10-03T12:32:29;7.05;;;4.10;;
27428;SDS011;14881;48.092;11.574;2022-10-03T12:35:21;8.75;;;4.15;;
27428;SDS011;14881;48.092;11.574;2022-10-03T12:38:03;7.28;;;5.00;;
27428;SDS011;14881;48.092;11.574;2022-10-03T12:40:41;6.40;;;4.45;;
27428;SDS011;14881;48.092;11.574;2022-10-03T12:43:19;8.93;;;4.47;;
27428;SDS011;14881;48.092;11.574;2022-10-03T12:48:55;8.15;;;3.97;;
27428;SDS011;14881;48.092;11.574;2022-10-03T12:54:06;8.68;;;5.00;;
27428;SDS011;14881;48.092;11.574;2022-10-03T12:56:44;6.22;;;4.22;;
27428;SDS011;14881;48.092;11.574;2022-10-03T12:59:18;7.68;;;4.10;;
27428;SDS011;14881;48.092;11.574;2022-10-03T13:02:09;7.68;;;4.20;;
27428;SDS011;14881;48.092;11.574;2022-10-03T13:04:56;4.28;;;3.75;;
27428;SDS011;14881;48.092;11.574;2022-10-03T13:07:45;8.77;;;4.85;;
27428;SDS011;14881;48.092;11.574;2022-10-03T13:10:21;5.32;;;4.15;;
27428;SDS011;14881;48.092;11.574;2022-10-03T13:13:00;5.85;;;3.78;;
27428;SDS011;14881;48.092;11.574;2022-10-03T13:15:40;7.43;;;4.00;;
27428;SDS011;14881;48.092;11.574;2022-10-03T13:18:16;6.63;;;3.70;;
27428;SDS011;14881;48.092;11.574;2022-10-03T13:20:57;6.60;;;3.83;;
27428;SDS011;14881;48.092;11.574;2022-10-03T13:23:52;7.10;;;3.95;;
27428;SDS011;14881;48.092;11.574;2022-10-03T13:26:25;6.18;;;3.50;;
27428;SDS011;14881;48.092;11.574;2022-10-03T13:29:12;8.10;;;4.05;;
27428;SDS011;14881;48.092;11.574;2022-10-03T13:31:52;9.07;;;4.45;;
27428;SDS011;14881;48.092;11.574;2022-10-03T13:34:31;7.63;;;4.70;;
27428;SDS011;14881;48.092;11.574;2022-10-03T13:37:04;9.75;;;5.82;;
27428;SDS011;14881;48.092;11.574;2022-10-03T13:39:40;11.52;;;5.43;;
27428;SDS011;14881;48.092;11.574;2022-10-03T13:42:15;6.82;;;4.05;;
27428;SDS011;14881;48.092;11.574;2022-10-03T13:44:48;4.22;;;3.35;;
27428;SDS011;14881;48.092;11.574;2022-10-03T13:47:24;4.30;;;2.72;;
27428;SDS011;14881;48.092;11.574;2022-10-03T13:49:57;3.72;;;2.22;;
27428;SDS011;14881;48.092;11.574;2022-10-03T13:52:34;4.72;;;3.33;;
27428;SDS011;14881;48.092;11.574;2022-10-03T13:55:09;8.23;;;4.47;;
27428;SDS011;14881;48.092;11.574;2022-10-03T13:57:57;8.45;;;4.65;;
27428;SDS011;14881;48.092;11.574;2022-10-03T14:00:41;10.10;;;5.38;;
27428;SDS011;14881;48.092;11.574;2022-10-03T14:03:20;8.48;;;5.22;;
27428;SDS011;14881;48.092;11.574;2022-10-03T14:05:57;10.73;;;5.03;;
27428;SDS011;14881;48.092;11.574;2022-10-03T14:08:48;9.27;;;6.18;;
27428;SDS011;14881;48.092;11.574;2022-10-03T14:11:28;10.32;;;5.00;;
27428;SDS011;14881;48.092;11.574;2022-10-03T14:17:10;9.40;;;4.72;;
27428;SDS011;14881;48.092;11.574;2022-10-03T14:19:51;7.28;;;4.82;;
27428;SDS011;14881;48.092;11.574;2022-10-03T14:22:44;8.30;;;4.67;;
27428;SDS011;14881;48.092;11.574;2022-10-03T14:25:34;11.90;;;5.70;;
27428;SDS011;14881;48.092;11.574;2022-10-03T14:28:08;8.32;;;4.45;;
27428;SDS011;14881;48.092;11.574;2022-10-03T14:30:45;8.18;;;5.45;;
27428;SDS011;14881;48.092;11.574;2022-10-03T14:33:33;11.10;;;5.30;;
27428;SDS011;14881;48.092;11.574;2022-10-03T14:36:10;6.68;;;4.45;;
27428;SDS011;14881;48.092;11.574;2022-10-03T14:38:53;5.85;;;4.72;;
27428;SDS011;14881;48.092;11.574;2022-10-03T14:41:48;6.57;;;4.18;;
27428;SDS011;14881;48.092;11.574;2022-10-03T14:44:51;6.80;;;3.95;;
27428;SDS011;14881;48.092;11.574;2022-10-03T14:47:21;7.00;;;5.10;;
27428;SDS011;14881;48.092;11.574;2022-10-03T14:49:51;8.25;;;5.05;;
27428;SDS011;14881;48.092;11.574;2022-10-03T14:52:27;13.35;;;5.32;;
27428;SDS011;14881;48.092;11.574;2022-10-03T14:55:02;10.57;;;4.30;;
27428;SDS011;14881;48.092;11.574;2022-10-03T14:57:41;9.00;;;5.00;;
27428;SDS011;14881;48.092;11.574;2022-10-03T15:00:35;10.75;;;3.80;;
27428;SDS011;14881;48.092;11.574;2022-10-03T15:09:14;7.40;;;4.20;;
27428;SDS011;14881;48.092;11.574;2022-10-03T15:11:46;6.32;;;4.03;;
27428;SDS011;14881;48.092;11.574;2022-10-03T15:14:18;6.95;;;4.47;;
27428;SDS011;14881;48.092;11.574;2022-10-03T15:16:49;6.55;;;3.88;;
27428;SDS011;14881;48.092;11.574;2022-10-03T15:19:20;6.97;;;3.85;;
27428;SDS011;14881;48.092;11.574;2022-10-03T15:21:53;8.13;;;4.30;;
27428;SDS011;14881;48.092;11.574;2022-10-03T15:24:29;8.57;;;4.82;;
27428;SDS011;14881;48.092;11.574;2022-10-03T15:29:31;8.30;;;3.97;;
27428;SDS011;14881;48.092;11.574;2022-10-03T15:32:02;5.97;;;4.10;;
27428;SDS011;14881;48.092;11.574;2022-10-03T15:34:32;7.63;;;4.40;;
27428;SDS011;14881;48.092;11.574;2022-10-03T15:37:07;9.52;;;4.70;;
27428;SDS011;14881;48.092;11.574;2022-10-03T15:39:42;10.55;;;4.95;;
27428;SDS011;14881;48.092;11.574;2022-10-03T15:42:18;6.40;;;4.50;;
27428;SDS011;14881;48.092;11.574;2022-10-03T15:44:51;11.57;;;4.60;;
27428;SDS011;14881;48.092;11.574;2022-10-03T15:47:21;9.20;;;4.57;;
27428;SDS011;14881;48.092;11.574;2022-10-03T15:49:52;6.47;;;4.32;;
27428;SDS011;14881;48.092;11.574;2022-10-03T15:52:25;9.30;;;4.93;;
27428;SDS011;14881;48.092;11.574;2022-10-03T15:54:58;10.32;;;4.38;;
27428;SDS011;14881;48.092;11.574;2022-10-03T15:57:38;7.63;;;4.03;;
27428;SDS011;14881;48.092;11.574;2022-10-03T16:00:18;7.45;;;4.28;;
27428;SDS011;14881;48.092;11.574;2022-10-03T16:02:50;9.02;;;4.82;;
27428;SDS011;14881;48.092;11.574;2022-10-03T16:05:25;8.82;;;4.55;;
27428;SDS011;14881;48.092;11.574;2022-10-03T16:07:55;6.25;;;4.28;;
27428;SDS011;14881;48.092;11.574;2022-10-03T16:10:28;12.05;;;5.53;;
27428;SDS011;14881;48.092;11.574;2022-10-03T16:13:01;10.40;;;5.03;;
27428;SDS011;14881;48.092;11.574;2022-10-03T16:15:47;16.63;;;8.07;;
27428;SDS011;14881;48.092;11.574;2022-10-03T16:18:40;9.10;;;5.20;;
27428;SDS011;14881;48.092;11.574;2022-10-03T16:21:14;8.52;;;4.78;;
27428;SDS011;14881;48.092;11.574;2022-10-03T16:23:47;12.70;;;5.47;;
27428;SDS011;14881;48.092;11.574;2022-10-03T16:26:22;10.50;;;5.25;;
27428;SDS011;14881;48.092;11.574;2022-10-03T16:28:59;7.47;;;4.38;;
27428;SDS011;14881;48.092;11.574;2022-10-03T16:31:35;9.98;;;4.70;;
27428;SDS011;14881;48.092;11.574;2022-10-03T16:34:11;7.72;;;4.55;;
27428;SDS011;14881;48.092;11.574;2022-10-03T16:36:41;10.10;;;5.45;;
27428;SDS011;14881;48.092;11.574;2022-10-03T16:39:14;10.98;;;5.28;;
27428;SDS011;14881;48.092;11.574;2022-10-03T16:41:51;7.47;;;5.43;;
27428;SDS011;14881;48.092;11.574;2022-10-03T16:44:22;9.40;;;6.53;;
27428;SDS011;14881;48.092;11.574;2022-10-03T16:46:54;9.63;;;8.55;;
27428;SDS011;14881;48.092;11.574;2022-10-03T16:49:29;11.48;;;7.38;;
27428;SDS011;14881;48.092;11.574;2022-10-03T16:52:24;10.80;;;7.88;;
27428;SDS011;14881;48.092;11.574;2022-10-03T16:54:59;11.00;;;8.65;;
27428;SDS011;14881;48.092;11.574;2022-10-03T16:57:37;9.27;;;7.85;;
27428;SDS011;14881;48.092;11.574;2022-10-03T17:00:14;13.50;;;6.50;;
27428;SDS011;14881;48.092;11.574;2022-10-03T17:02:48;7.28;;;5.60;;
27428;SDS011;14881;48.092;11.574;2022-10-03T17:05:16;11.15;;;5.65;;
27428;SDS011;14881;48.092;11.574;2022-10-03T17:07:46;6.95;;;5.57;;
27428;SDS011;14881;48.092;11.574;2022-10-03T17:10:26;14.63;;;6.13;;
27428;SDS011;14881;48.092;11.574;2022-10-03T17:12:59;7.85;;;5.65;;
27428;SDS011;14881;48.092;11.574;2022-10-03T17:15:30;10.15;;;6.03;;
27428;SDS011;14881;48.092;11.574;2022-10-03T17:18:07;13.23;;;6.68;;
27428;SDS011;14881;48.092;11.574;2022-10-03T17:20:46;9.30;;;6.00;;
27428;SDS011;14881;48.092;11.574;2022-10-03T17:23:21;11.48;;;6.05;;
27428;SDS011;14881;48.092;11.574;2022-10-03T17:25:56;15.70;;;7.25;;
27428;SDS011;14881;48.092;11.574;2022-10-03T17:28:30;8.05;;;6.10;;
27428;SDS011;14881;48.092;11.574;2022-10-03T17:31:05;14.00;;;5.75;;
27428;SDS011;14881;48.092;11.574;2022-10-03T17:33:50;9.68;;;5.97;;
27428;SDS011;14881;48.092;11.574;2022-10-03T17:36:35;12.88;;;5.75;;
27428;SDS011;14881;48.092;11.574;2022-10-03T17:39:13;7.57;;;6.20;;
27428;SDS011;14881;48.092;11.574;2022-10-03T17:41:52;9.05;;;5.60;;
27428;SDS011;14881;48.092;11.574;2022-10-03T17:44:27;11.15;;;5.68;;
27428;SDS011;14881;48.092;11.574;2022-10-03T17:47:04;8.43;;;5.35;;
27428;SDS011;14881;48.092;11.574;2022-10-03T17:49:42;7.30;;;5.70;;
27428;SDS011;14881;48.092;11.574;2022-10-03T17:52:17;9.20;;;5.70;;
27428;SDS011;14881;48.092;11.574;2022-10-03T17:54:47;10.77;;;6.32;;
27428;SDS011;14881;48.092;11.574;2022-10-03T17:57:21;10.30;;;5.85;;
27428;SDS011;14881;48.092;11.574;2022-10-03T17:59:55;10.07;;;5.13;;
27428;SDS011;14881;48.092;11.574;2022-10-03T18:02:32;10.45;;;5.78;;
27428;SDS011;14881;48.092;11.574;2022-10-03T18:07:41;10.43;;;5.40;;
27428;SDS011;14881;48.092;11.574;2022-10-03T18:10:18;10.40;;;5.43;;
27428;SDS011;14881;48.092;11.574;2022-10-03T18:12:49;9.32;;;5.82;;
27428;SDS011;14881;48.092;11.574;2022-10-03T18:15:21;9.52;;;6.00;;
27428;SDS011;14881;48.092;11.574;2022-10-03T18:18:06;9.73;;;6.88;;
27428;SDS011;14881;48.092;11.574;2022-10-03T18:21:03;11.00;;;6.57;;
27428;SDS011;14881;48.092;11.574;2022-10-03T18:23:37;10.95;;;6.07;;
27428;SDS011;14881;48.092;11.574;2022-10-03T18:26:22;10.45;;;6.32;;
27428;SDS011;14881;48.092;11.574;2022-10-03T18:28:57;9.88;;;5.47;;
27428;SDS011;14881;48.092;11.574;2022-10-03T18:31:36;11.20;;;6.10;;
27428;SDS011;14881;48.092;11.574;2022-10-03T18:34:06;9.60;;;5.47;;
27428;SDS011;14881;48.092;11.574;2022-10-03T18:36:43;7.07;;;5.88;;
27428;SDS011;14881;48.092;11.574;2022-10-03T18:39:14;7.97;;;5.97;;
27428;SDS011;14881;48.092;11.574;2022-10-03T18:41:44;13.68;;;6.80;;
27428;SDS011;14881;48.092;11.574;2022-10-03T18:44:17;10.82;;;6.63;;
27428;SDS011;14881;48.092;11.574;2022-10-03T18:46:47;14.20;;;6.95;;
27428;SDS011;14881;48.092;11.574;2022-10-03T18:49:20;12.80;;;7.63;;
27428;SDS011;14881;48.092;11.574;2022-10-03T18:52:04;12.30;;;7.22;;
27428;SDS011;14881;48.092;11.574;2022-10-03T18:54:45;11.85;;;8.10;;
27428;SDS011;14881;48.092;11.574;2022-10-03T18:57:25;9.10;;;7.07;;
27428;SDS011;14881;48.092;11.574;2022-10-03T19:02:32;10.13;;;5.82;;
27428;SDS011;14881;48.092;11.574;2022-10-03T19:05:06;14.05;;;5.75;;
27428;SDS011;14881;48.092;11.574;2022-10-03T19:07:44;9.50;;;5.95;;
27428;SDS011;14881;48.092;11.574;2022-10-03T19:10:27;11.88;;;5.68;;
27428;SDS011;14881;48.092;11.574;2022-10-03T19:13:02;8.13;;;5.80;;
27428;SDS011;14881;48.092;11.574;2022-10-03T19:18:40;11.00;;;5.75;;